Time;durP1;ratioP1;P1;durP2;ratioP2;P2;SDS_P1;SDS_P2;PMS_P1;PMS_P2;Temp;Humidity;BMP_temperature;BMP_pressure;BME280_temperature;BME280_humidity;BME280_pressure;Samples;Min_cycle;Max_cycle;Signal;HPM_P1;HPM_P2
2022/08/02 00:00:15;;;;;;;7.90;3.13;;;;;;;16.26;60.18;101681.72;4985783;28;20089;-81
2022/08/02 00:02:42;;;;;;;6.00;3.17;;;;;;;16.27;60.28;101682.59;4982618;28;20435;-80
2022/08/02 00:05:08;;;;;;;5.45;2.63;;;;;;;16.24;59.66;101678.25;4980276;28;20042;-81
2022/08/02 00:07:33;;;;;;;2.83;2.55;;;;;;;16.23;60.01;101681.03;4987647;28;20121;-80
2022/08/02 00:09:58;;;;;;;6.47;2.55;;;;;;;16.19;59.72;101683.91;4980251;28;20322;-80
2022/08/02 00:12:24;;;;;;;4.85;2.40;;;;;;;16.17;59.71;101672.38;4989422;28;20045;-80
2022/08/02 00:14:50;;;;;;;3.50;2.65;;;;;;;16.16;58.81;101677.84;4981918;28;20031;-82
2022/08/02 00:17:15;;;;;;;5.65;2.70;;;;;;;16.13;60.44;101680.72;4981658;28;20034;-81
2022/08/02 00:19:40;;;;;;;4.15;2.60;;;;;;;16.13;61.43;101683.41;4975663;28;20065;-81
2022/08/02 00:22:06;;;;;;;4.15;2.70;;;;;;;16.05;59.52;101673.16;4988192;28;20112;-82
2022/08/02 00:24:31;;;;;;;3.60;2.35;;;;;;;16.11;59.39;101669.22;4982348;28;20394;-82
2022/08/02 00:26:57;;;;;;;5.35;2.55;;;;;;;16.07;58.41;101681.09;4992824;28;20042;-81
2022/08/02 00:29:22;;;;;;;4.28;2.50;;;;;;;16.02;58.37;101670.66;4999144;28;20030;-81
2022/08/02 00:31:47;;;;;;;4.78;2.65;;;;;;;16.02;58.08;101688.59;5004024;28;20015;-81
2022/08/02 00:34:13;;;;;;;6.82;2.65;;;;;;;16.01;58.05;101686.84;5005188;28;20039;-80
2022/08/02 00:36:39;;;;;;;5.63;2.13;;;;;;;15.98;57.78;101687.91;5010291;28;20066;-80
2022/08/02 00:39:04;;;;;;;5.50;2.50;;;;;;;16.00;58.16;101691.34;5007820;28;20045;-80
2022/08/02 00:41:29;;;;;;;3.80;2.25;;;;;;;15.94;57.25;101683.66;4992284;28;20022;-80
2022/08/02 00:43:56;;;;;;;3.90;2.33;;;;;;;15.95;57.05;101685.38;4989818;28;20042;-80
2022/08/02 00:46:21;;;;;;;5.80;2.38;;;;;;;15.99;56.89;101686.94;4991031;28;20041;-80
2022/08/02 00:48:47;;;;;;;3.30;1.98;;;;;;;15.91;56.50;101683.84;4992017;28;20101;-81
2022/08/02 00:51:13;;;;;;;4.40;2.00;;;;;;;15.94;57.09;101683.66;4989626;28;20034;-80
2022/08/02 00:53:39;;;;;;;4.53;2.47;;;;;;;15.90;56.33;101680.31;4980894;28;20433;-80
2022/08/02 00:56:04;;;;;;;3.05;2.22;;;;;;;15.92;56.51;101681.06;4993330;28;20041;-80
2022/08/02 00:58:30;;;;;;;2.65;2.28;;;;;;;15.88;56.31;101674.19;4978617;28;20026;-80
2022/08/02 01:00:56;;;;;;;4.13;2.42;;;;;;;15.87;56.49;101664.38;4987924;28;20046;-80
2022/08/02 01:03:25;;;;;;;3.65;2.22;;;;;;;15.81;56.36;101664.75;4997267;28;20069;-80
2022/08/02 01:05:50;;;;;;;4.07;2.47;;;;;;;15.82;56.75;101655.72;4993025;28;20039;-80
2022/08/02 01:08:16;;;;;;;3.58;2.55;;;;;;;15.83;56.66;101653.91;4989916;28;20034;-80
2022/08/02 01:10:41;;;;;;;8.63;2.60;;;;;;;15.80;57.01;101656.75;4982133;28;20403;-80
2022/08/02 01:13:07;;;;;;;6.75;2.85;;;;;;;15.81;56.70;101654.00;4986303;28;20096;-79
2022/08/02 01:15:37;;;;;;;3.88;2.47;;;;;;;15.78;57.04;101661.38;4985983;28;20034;-80
2022/08/02 01:18:08;;;;;;;4.13;2.47;;;;;;;15.76;56.98;101649.84;4985972;28;20038;-80
2022/08/02 01:21:04;;;;;;;6.78;2.70;;;;;;;15.76;57.52;101653.44;4987007;28;20287;-80
2022/08/02 01:23:51;;;;;;;5.72;2.90;;;;;;;15.65;57.63;101664.78;4991235;28;20036;-81
2022/08/02 01:26:30;;;;;;;8.23;2.63;;;;;;;15.57;57.93;101653.59;4993200;28;20040;-81
2022/08/02 01:29:29;;;;;;;5.63;3.00;;;;;;;15.49;58.21;101655.03;4987348;28;20156;-81
2022/08/02 01:32:17;;;;;;;7.25;3.00;;;;;;;15.48;58.83;101667.56;4994380;28;20033;-80
2022/08/02 01:34:51;;;;;;;5.53;3.17;;;;;;;15.41;58.79;101656.31;4987724;28;20030;-80
2022/08/02 01:37:20;;;;;;;6.78;3.20;;;;;;;15.37;58.90;101649.41;4987482;28;20034;-82
2022/08/02 01:39:50;;;;;;;4.95;3.05;;;;;;;15.39;59.13;101652.00;4986010;28;20049;-81
2022/08/02 01:42:18;;;;;;;4.57;3.00;;;;;;;15.38;59.37;101650.25;4993576;28;20033;-81
2022/08/02 01:44:45;;;;;;;5.57;2.97;;;;;;;15.32;59.82;101646.13;4990545;28;20511;-81
2022/08/02 01:47:18;;;;;;;5.97;3.05;;;;;;;15.32;60.21;101648.81;4988407;28;20030;-81
2022/08/02 01:49:50;;;;;;;5.80;2.90;;;;;;;15.38;60.40;101653.84;4987948;28;20026;-80
2022/08/02 01:52:20;;;;;;;5.95;3.10;;;;;;;15.44;59.91;101645.41;4986214;28;20030;-81
2022/08/02 01:54:55;;;;;;;6.32;3.22;;;;;;;15.45;59.79;101639.09;4989003;28;20162;-82
2022/08/02 01:57:23;;;;;;;6.43;3.10;;;;;;;15.39;59.89;101638.59;4992132;28;20045;-82
2022/08/02 01:59:50;;;;;;;5.70;2.88;;;;;;;15.34;59.97;101632.63;4979502;28;20041;-82
2022/08/02 02:02:17;;;;;;;5.30;3.10;;;;;;;15.35;60.02;101642.41;4997013;28;20030;-82
2022/08/02 02:04:45;;;;;;;4.10;3.08;;;;;;;15.30;60.18;101633.75;4985195;28;20035;-81
2022/08/02 02:07:12;;;;;;;5.75;3.28;;;;;;;15.29;60.36;101634.72;4988886;28;20426;-81
2022/08/02 02:09:38;;;;;;;6.80;3.58;;;;;;;15.23;60.53;101625.22;4985118;28;20037;-82
2022/08/02 02:12:06;;;;;;;6.55;3.58;;;;;;;15.22;60.74;101619.94;4979946;28;20580;-81
2022/08/02 02:14:33;;;;;;;6.88;3.30;;;;;;;15.16;60.90;101624.69;4987076;28;20038;-80
2022/08/02 02:17:00;;;;;;;6.57;3.53;;;;;;;15.14;61.16;101623.94;4975598;28;20098;-81
2022/08/02 02:19:27;;;;;;;5.82;3.70;;;;;;;15.08;61.34;101610.00;4989118;28;20158;-82
2022/08/02 02:21:53;;;;;;;10.07;3.92;;;;;;;15.09;61.60;101606.34;4982705;28;20037;-82
2022/08/02 02:24:19;;;;;;;5.38;3.50;;;;;;;15.09;61.66;101611.72;4984362;28;20388;-82
2022/08/02 02:26:45;;;;;;;7.55;3.92;;;;;;;15.08;62.10;101615.34;4980104;28;20030;-81
2022/08/02 02:29:13;;;;;;;7.13;3.65;;;;;;;15.04;62.24;101609.31;4990293;28;20030;-82
2022/08/02 02:31:41;;;;;;;5.75;3.22;;;;;;;15.02;62.21;101595.13;4981520;28;20035;-82
2022/08/02 02:34:14;;;;;;;6.78;3.83;;;;;;;15.02;62.29;101589.78;4979867;28;20076;-82
2022/08/02 02:36:44;;;;;;;6.13;3.53;;;;;;;15.03;62.60;101590.63;4974831;28;20034;-81
2022/08/02 02:39:11;;;;;;;5.95;3.58;;;;;;;15.03;62.57;101594.19;4981551;28;20042;-80
2022/08/02 02:41:38;;;;;;;6.38;3.92;;;;;;;14.97;62.81;101585.66;4990621;28;20535;-80
2022/08/02 02:44:08;;;;;;;7.07;3.40;;;;;;;15.01;62.90;101592.56;4989853;28;20369;-80
2022/08/02 02:46:34;;;;;;;8.60;3.90;;;;;;;14.95;62.87;101599.97;4985870;28;20030;-81
2022/08/02 02:49:00;;;;;;;6.50;3.92;;;;;;;14.90;62.90;101595.84;4982756;28;20109;-82
2022/08/02 02:51:26;;;;;;;4.97;3.70;;;;;;;14.87;63.11;101594.19;4988519;28;20490;-80
2022/08/02 02:53:53;;;;;;;6.53;4.05;;;;;;;14.86;63.29;101592.47;4985320;28;20372;-81
2022/08/02 02:56:19;;;;;;;7.47;4.22;;;;;;;14.82;63.78;101600.78;4982132;28;20021;-80
2022/08/02 02:58:46;;;;;;;5.68;4.03;;;;;;;14.83;63.66;101592.63;4976919;28;20078;-80
2022/08/02 03:01:28;;;;;;;7.18;4.28;;;;;;;14.82;63.62;101600.78;4993412;28;20496;-80
2022/08/02 03:04:00;;;;;;;5.95;4.00;;;;;;;14.78;63.65;101597.41;4983517;28;20105;-80
2022/08/02 03:06:25;;;;;;;6.10;3.67;;;;;;;14.78;64.35;101596.53;4994087;28;20033;-81
2022/08/02 03:08:51;;;;;;;10.38;4.43;;;;;;;14.79;64.53;101595.56;4984358;28;20590;-81
2022/08/02 03:11:16;;;;;;;8.70;4.32;;;;;;;14.73;64.73;101593.25;4992811;28;20543;-80
2022/08/02 03:13:42;;;;;;;8.32;4.68;;;;;;;14.71;64.64;101582.59;4985728;28;20534;-81
2022/08/02 03:16:10;;;;;;;8.77;4.30;;;;;;;14.72;64.72;101573.63;4976480;28;20539;-81
2022/08/02 03:18:38;;;;;;;6.00;4.63;;;;;;;14.70;64.86;101586.25;4974868;28;20476;-81
2022/08/02 03:21:13;;;;;;;5.57;4.13;;;;;;;14.69;64.74;101576.47;4974573;28;20507;-81
2022/08/02 03:23:40;;;;;;;5.72;3.78;;;;;;;14.66;65.81;101587.38;4987637;28;20034;-81
2022/08/02 03:26:07;;;;;;;7.43;4.60;;;;;;;14.63;66.23;101582.16;4989784;28;20027;-80
2022/08/02 03:28:33;;;;;;;7.57;4.28;;;;;;;14.61;66.52;101579.59;4984449;28;20101;-80
2022/08/02 03:30:59;;;;;;;9.40;4.50;;;;;;;14.56;66.63;101572.78;4984012;28;20118;-80
2022/08/02 03:33:25;;;;;;;7.45;4.32;;;;;;;14.58;66.89;101584.25;4986079;28;20026;-80
2022/08/02 03:35:53;;;;;;;8.38;4.90;;;;;;;14.54;66.26;101588.03;4982859;28;20027;-81
2022/08/02 03:38:21;;;;;;;8.70;5.18;;;;;;;14.50;67.61;101581.13;4974814;28;20055;-80
2022/08/02 03:40:48;;;;;;;6.32;4.38;;;;;;;14.51;67.53;101582.88;4994004;28;20187;-81
2022/08/02 03:43:14;;;;;;;10.13;4.90;;;;;;;14.55;67.17;101584.44;4994239;28;20380;-81
2022/08/02 03:45:46;;;;;;;8.88;4.75;;;;;;;14.55;66.56;101571.06;4988460;28;20109;-81
2022/08/02 03:48:13;;;;;;;5.38;4.68;;;;;;;14.55;67.06;101576.41;4995282;28;20569;-81
2022/08/02 03:50:39;;;;;;;8.40;5.00;;;;;;;14.58;67.68;101573.53;4984386;28;20055;-81
2022/08/02 03:53:06;;;;;;;9.95;4.90;;;;;;;14.54;67.68;101566.63;4975951;28;20027;-81
2022/08/02 03:55:32;;;;;;;4.85;4.35;;;;;;;14.52;67.02;101566.72;4980762;28;20035;-81
2022/08/02 03:57:58;;;;;;;10.00;4.88;;;;;;;14.48;67.30;101559.75;4989926;28;20233;-81
2022/08/02 04:00:24;;;;;;;7.85;5.07;;;;;;;14.49;67.78;101566.88;4994251;28;20117;-81
2022/08/02 04:02:49;;;;;;;7.90;4.70;;;;;;;14.53;67.49;101560.41;4992795;28;20026;-82
2022/08/02 04:05:15;;;;;;;10.18;5.50;;;;;;;14.54;67.83;101571.97;4989670;28;20061;-81
2022/08/02 04:07:42;;;;;;;8.45;4.85;;;;;;;14.60;68.17;101572.50;4984190;28;20014;-81
2022/08/02 04:10:08;;;;;;;7.65;4.75;;;;;;;14.64;68.11;101567.84;4985342;28;20129;-81
2022/08/02 04:12:33;;;;;;;7.50;4.45;;;;;;;14.59;67.85;101560.06;4992266;28;20082;-82
2022/08/02 04:14:59;;;;;;;6.97;4.78;;;;;;;14.64;67.93;101549.09;4987598;28;20038;-81
2022/08/02 04:17:30;;;;;;;9.23;4.85;;;;;;;14.63;67.67;101545.56;4983567;28;20030;-81
2022/08/02 04:20:02;;;;;;;7.75;4.85;;;;;;;14.64;67.97;101551.78;5004220;28;20116;-81
2022/08/02 04:22:34;;;;;;;8.00;5.05;;;;;;;14.66;68.25;101544.50;4996974;28;20030;-81
2022/08/02 04:25:03;;;;;;;7.03;4.75;;;;;;;14.65;68.52;101550.81;5004568;28;20030;-80
2022/08/02 04:27:30;;;;;;;7.07;4.88;;;;;;;14.68;68.47;101556.00;4990335;28;20471;-81
2022/08/02 04:29:57;;;;;;;8.43;5.00;;;;;;;14.71;68.30;101563.84;4985799;28;20031;-80
2022/08/02 04:32:23;;;;;;;9.65;4.90;;;;;;;14.73;68.39;101566.47;4981961;28;20026;-81
2022/08/02 04:34:48;;;;;;;8.90;4.82;;;;;;;14.74;68.43;101569.03;4974857;28;20025;-80
2022/08/02 04:37:14;;;;;;;8.60;5.82;;;;;;;14.77;68.64;101562.66;4981590;28;20192;-81
2022/08/02 04:39:40;;;;;;;8.25;5.00;;;;;;;14.73;68.99;101545.88;4986762;28;20034;-81
2022/08/02 04:42:06;;;;;;;8.88;4.90;;;;;;;14.74;68.79;101558.31;4992214;28;20025;-81
2022/08/02 04:44:31;;;;;;;7.97;4.70;;;;;;;14.70;69.28;101560.31;4987041;28;20132;-81
2022/08/02 04:47:01;;;;;;;5.13;4.30;;;;;;;14.78;69.63;101572.41;4981020;28;20459;-81
2022/08/02 04:49:26;;;;;;;7.78;4.93;;;;;;;14.77;69.62;101574.22;4987750;28;20552;-81
2022/08/02 04:51:52;;;;;;;6.43;5.00;;;;;;;14.80;69.67;101566.03;4991936;28;20130;-81
2022/08/02 04:54:17;;;;;;;6.72;4.78;;;;;;;14.76;69.86;101560.94;4991399;28;20022;-81
2022/08/02 04:56:42;;;;;;;10.63;5.68;;;;;;;14.79;70.05;101556.25;4994012;28;20046;-81
2022/08/02 04:59:08;;;;;;;7.78;5.15;;;;;;;14.79;70.49;101560.75;4988726;28;20057;-81
2022/08/02 05:01:34;;;;;;;13.10;5.35;;;;;;;14.80;70.34;101551.78;4982900;28;20052;-80
2022/08/02 05:03:59;;;;;;;7.00;4.80;;;;;;;14.80;70.53;101549.09;4982039;28;20492;-81
2022/08/02 05:06:25;;;;;;;8.93;6.10;;;;;;;14.89;70.47;101568.19;4980814;28;20023;-81
2022/08/02 05:08:50;;;;;;;8.52;5.25;;;;;;;14.86;70.75;101560.31;4981887;28;20037;-80
2022/08/02 05:11:15;;;;;;;11.30;5.93;;;;;;;14.86;70.90;101559.44;4983340;28;20034;-80
2022/08/02 05:13:41;;;;;;;10.98;6.00;;;;;;;14.90;71.06;101551.13;5002288;28;20030;-80
2022/08/02 05:16:06;;;;;;;9.35;5.75;;;;;;;14.94;71.04;101558.03;5003317;28;20062;-80
2022/08/02 05:18:32;;;;;;;11.10;6.30;;;;;;;15.01;71.58;101557.72;4992185;28;20026;-81
2022/08/02 05:20:57;;;;;;;12.52;7.15;;;;;;;15.07;71.17;101562.69;4987761;28;20030;-80
2022/08/02 05:23:22;;;;;;;10.48;6.60;;;;;;;15.11;71.58;101557.06;4979753;28;20058;-80
2022/08/02 05:25:47;;;;;;;9.27;6.43;;;;;;;15.21;71.63;101552.00;4984325;28;20026;-81
2022/08/02 05:28:13;;;;;;;7.70;6.15;;;;;;;15.34;71.10;101552.16;4998919;28;20030;-80
2022/08/02 05:30:39;;;;;;;12.93;6.65;;;;;;;15.42;71.71;101552.56;4995876;28;20027;-81
2022/08/02 05:33:04;;;;;;;9.10;6.50;;;;;;;15.54;71.35;101549.13;4997151;28;20033;-81
2022/08/02 05:35:30;;;;;;;9.98;6.90;;;;;;;15.63;71.52;101545.94;4992991;28;20037;-81
2022/08/02 05:37:55;;;;;;;10.60;7.25;;;;;;;15.78;71.22;101537.91;4992090;28;20085;-80
2022/08/02 05:40:20;;;;;;;9.10;6.75;;;;;;;15.90;71.25;101543.38;5000892;28;20041;-81
2022/08/02 05:42:45;;;;;;;11.00;7.63;;;;;;;16.02;71.67;101533.72;5017259;28;20030;-81
2022/08/02 05:45:11;;;;;;;11.05;7.72;;;;;;;16.16;71.29;101533.69;4987234;28;20031;-81
2022/08/02 05:47:37;;;;;;;11.32;7.63;;;;;;;16.43;71.23;101536.44;4976056;28;20018;-81
2022/08/02 05:50:05;;;;;;;13.02;7.72;;;;;;;16.63;70.51;101536.97;4982382;28;20030;-80
2022/08/02 05:52:45;;;;;;;10.75;7.80;;;;;;;16.89;69.74;101538.00;4996401;28;20041;-80
2022/08/02 05:55:17;;;;;;;11.00;7.47;;;;;;;17.17;69.57;101539.66;4985992;28;20045;-80
2022/08/02 05:57:57;;;;;;;16.60;8.25;;;;;;;17.32;68.56;101540.47;4983914;28;20030;-81
2022/08/02 06:00:23;;;;;;;11.90;8.13;;;;;;;17.48;68.60;101549.22;4980664;28;20058;-81
2022/08/02 06:03:07;;;;;;;13.70;8.02;;;;;;;17.66;68.27;101539.00;4981491;28;20030;-81
2022/08/02 06:05:39;;;;;;;10.50;7.97;;;;;;;17.84;67.99;101551.22;4980487;28;20116;-81
2022/08/02 06:08:08;;;;;;;14.15;9.73;;;;;;;18.07;67.45;101562.22;4978711;28;20026;-81
2022/08/02 06:10:35;;;;;;;13.43;8.45;;;;;;;18.34;66.38;101554.81;4978138;28;20029;-81
2022/08/02 06:13:08;;;;;;;10.98;8.73;;;;;;;18.57;65.82;101563.09;4985748;28;20026;-81
2022/08/02 06:15:35;;;;;;;9.05;7.30;;;;;;;18.84;64.98;101558.38;4990226;28;20053;-81
2022/08/02 06:18:03;;;;;;;10.25;8.48;;;;;;;18.93;65.46;101567.63;4984535;28;20037;-80
2022/08/02 06:20:34;;;;;;;10.55;8.85;;;;;;;18.91;64.90;101561.50;4982750;28;20475;-81
2022/08/02 06:23:01;;;;;;;12.40;8.43;;;;;;;18.98;66.18;101567.28;4976580;28;20484;-80
2022/08/02 06:25:28;;;;;;;11.43;8.35;;;;;;;19.19;65.50;101568.38;4989421;28;20038;-80
2022/08/02 06:27:54;;;;;;;10.18;8.30;;;;;;;19.26;64.38;101574.16;4979876;28;20023;-81
2022/08/02 06:30:20;;;;;;;8.68;7.22;;;;;;;19.20;64.88;101564.69;4981404;28;20038;-80
2022/08/02 06:32:49;;;;;;;10.95;8.32;;;;;;;19.20;65.39;101563.84;4981365;28;20022;-80
2022/08/02 06:35:14;;;;;;;7.57;6.75;;;;;;;19.31;65.70;101570.16;4975627;28;20042;-80
2022/08/02 06:37:59;;;;;;;10.48;7.55;;;;;;;19.55;64.79;101564.69;4980076;28;20440;-80
2022/08/02 06:40:31;;;;;;;10.30;7.40;;;;;;;19.82;64.04;101560.88;4977739;28;20062;-87
2022/08/02 06:43:12;;;;;;;10.05;7.28;;;;;;;19.87;63.06;101564.91;4978036;28;20356;-80
2022/08/02 06:45:38;;;;;;;7.97;6.80;;;;;;;19.90;61.92;101566.53;4974521;28;20058;-80
2022/08/02 06:48:04;;;;;;;9.65;6.55;;;;;;;20.07;62.97;101551.69;4979823;28;20038;-80
2022/08/02 06:50:30;;;;;;;11.82;7.65;;;;;;;20.07;62.14;101554.38;4977329;28;20030;-81
2022/08/02 06:52:55;;;;;;;11.25;8.70;;;;;;;20.07;63.19;101541.72;4977425;28;20428;-80
2022/08/02 06:55:21;;;;;;;10.00;7.53;;;;;;;20.15;62.13;101550.09;4989507;28;20073;-80
2022/08/02 06:57:46;;;;;;;9.38;6.90;;;;;;;20.35;61.94;101544.91;4982720;28;20037;-80
2022/08/02 07:00:12;;;;;;;8.60;6.85;;;;;;;20.60;62.00;101546.50;4984591;28;20053;-80
2022/08/02 07:02:40;;;;;;;10.45;7.57;;;;;;;20.91;62.41;101549.38;4981663;28;20089;-81
2022/08/02 07:05:08;;;;;;;12.13;7.35;;;;;;;21.13;61.75;101544.75;4982160;28;20061;-80
2022/08/02 07:07:33;;;;;;;11.07;8.00;;;;;;;21.45;60.74;101548.47;4977466;28;20108;-80
2022/08/02 07:09:59;;;;;;;12.40;8.13;;;;;;;21.53;59.57;101545.94;4986711;28;20050;-80
2022/08/02 07:12:25;;;;;;;12.52;7.75;;;;;;;21.70;59.78;101548.06;4988349;28;20023;-80
2022/08/02 07:14:50;;;;;;;11.77;8.30;;;;;;;21.88;59.72;101562.69;4987601;28;20563;-80
2022/08/02 07:17:15;;;;;;;9.93;8.07;;;;;;;22.11;59.49;101552.56;4985122;28;20062;-79
2022/08/02 07:19:41;;;;;;;12.65;7.97;;;;;;;22.34;58.59;101553.25;4981811;28;20566;-80
2022/08/02 07:22:06;;;;;;;12.27;7.15;;;;;;;22.49;57.43;101561.88;4987921;28;20030;-81
2022/08/02 07:24:31;;;;;;;9.23;6.80;;;;;;;22.62;57.57;101561.63;4988612;28;20034;-80
2022/08/02 07:26:57;;;;;;;9.80;8.02;;;;;;;22.75;57.33;101556.78;4979804;28;20487;-79
2022/08/02 07:29:23;;;;;;;9.75;6.82;;;;;;;23.00;56.97;101543.72;4988356;28;20420;-80
2022/08/02 07:31:48;;;;;;;12.18;7.50;;;;;;;23.13;55.70;101543.44;4980337;28;20058;-79
2022/08/02 07:34:13;;;;;;;7.43;6.45;;;;;;;23.13;55.92;101538.00;4981025;28;20034;-80
2022/08/02 07:36:39;;;;;;;9.38;7.22;;;;;;;23.21;55.45;101544.44;4967803;28;20500;-80
2022/08/02 07:39:04;;;;;;;9.63;6.65;;;;;;;23.31;55.38;101547.13;4977834;28;20034;-80
2022/08/02 07:41:29;;;;;;;9.40;6.43;;;;;;;23.36;55.61;101545.69;4978569;28;20022;-80
2022/08/02 07:43:55;;;;;;;10.70;6.10;;;;;;;23.55;55.10;101539.41;4985401;28;20123;-80
2022/08/02 07:46:20;;;;;;;8.07;6.60;;;;;;;23.82;54.27;101537.78;4986523;28;20045;-79
2022/08/02 07:48:47;;;;;;;6.88;5.65;;;;;;;24.25;53.38;101531.78;4982119;28;20045;-80
2022/08/02 07:51:12;;;;;;;6.85;5.03;;;;;;;24.62;51.96;101530.00;4982801;28;20475;-79
2022/08/02 07:53:37;;;;;;;5.93;5.22;;;;;;;24.78;51.48;101533.75;4983225;28;20023;-80
2022/08/02 07:56:03;;;;;;;6.93;5.05;;;;;;;25.28;49.84;101535.97;4977768;28;20493;-80
2022/08/02 07:58:28;;;;;;;5.93;5.15;;;;;;;25.57;48.59;101548.47;4981847;28;20476;-80
2022/08/02 08:00:54;;;;;;;6.68;4.18;;;;;;;26.23;47.70;101547.06;4980189;28;20041;-81
2022/08/02 08:03:19;;;;;;;7.25;4.40;;;;;;;26.51;45.92;101539.53;5010839;28;20061;-80
2022/08/02 08:05:44;;;;;;;7.03;3.67;;;;;;;26.63;45.06;101535.47;5007195;28;20073;-80
2022/08/02 08:08:10;;;;;;;5.30;3.13;;;;;;;27.02;44.55;101538.44;5000612;28;20015;-80
2022/08/02 08:10:35;;;;;;;6.43;4.07;;;;;;;27.55;43.22;101545.34;4997818;28;20018;-80
2022/08/02 08:13:01;;;;;;;7.75;5.07;;;;;;;28.06;42.35;101539.63;4997422;28;20045;-80
2022/08/02 08:15:26;;;;;;;4.88;3.40;;;;;;;28.37;41.45;101549.81;4993596;28;20034;-79
2022/08/02 08:17:51;;;;;;;5.88;2.95;;;;;;;28.47;40.49;101550.47;4988258;28;20108;-80
2022/08/02 08:20:17;;;;;;;4.18;2.67;;;;;;;28.49;40.95;101548.38;4986130;28;20034;-80
2022/08/02 08:22:42;;;;;;;3.47;2.80;;;;;;;28.48;39.90;101546.69;4988547;28;20109;-80
2022/08/02 08:25:08;;;;;;;6.35;3.08;;;;;;;28.53;40.92;101541.50;4986938;28;20365;-82
2022/08/02 08:27:33;;;;;;;5.00;3.35;;;;;;;28.27;40.91;101555.47;4988142;28;20033;-81
2022/08/02 08:29:59;;;;;;;4.65;3.78;;;;;;;28.52;41.45;101542.56;4989025;28;20027;-83
2022/08/02 08:32:25;;;;;;;5.18;3.50;;;;;;;28.75;41.06;101540.69;4982071;28;20018;-81
2022/08/02 08:34:51;;;;;;;4.85;3.40;;;;;;;28.95;40.14;101540.25;4979909;28;20121;-81
2022/08/02 08:37:16;;;;;;;4.25;2.50;;;;;;;29.34;39.27;101533.78;4984652;28;20118;-81
2022/08/02 08:39:41;;;;;;;3.65;2.58;;;;;;;29.70;37.75;101529.38;4981602;28;20050;-81
2022/08/02 08:42:07;;;;;;;4.75;2.42;;;;;;;30.10;37.01;101532.72;4982066;28;20057;-81
2022/08/02 08:44:34;;;;;;;4.00;2.40;;;;;;;30.41;35.73;101526.19;4984289;28;20109;-79
2022/08/02 08:47:02;;;;;;;3.90;2.58;;;;;;;30.69;36.11;101532.66;4982678;28;20395;-79
2022/08/02 08:49:35;;;;;;;3.85;2.65;;;;;;;30.55;35.69;101532.69;4989058;28;20030;-80
2022/08/02 08:52:04;;;;;;;4.75;2.20;;;;;;;30.37;37.12;101525.72;4981243;28;20052;-80
2022/08/02 08:54:32;;;;;;;2.88;2.50;;;;;;;30.95;35.32;101532.13;4983748;28;20085;-79
2022/08/02 08:56:58;;;;;;;2.78;2.58;;;;;;;31.08;34.69;101536.06;4974708;28;20046;-85
2022/08/02 08:59:23;;;;;;;3.08;2.33;;;;;;;31.04;34.76;101530.09;4990947;28;20117;-80
2022/08/02 09:01:49;;;;;;;2.55;2.22;;;;;;;31.19;35.17;101535.53;4994182;28;20076;-80
2022/08/02 09:04:15;;;;;;;5.03;2.63;;;;;;;31.41;34.43;101540.00;4975789;28;20448;-79
2022/08/02 09:06:41;;;;;;;3.15;2.28;;;;;;;31.33;34.28;101533.78;4970618;28;20101;-80
2022/08/02 09:09:07;;;;;;;4.95;2.95;;;;;;;31.13;34.01;101534.41;4976148;28;20117;-79
2022/08/02 09:11:32;;;;;;;5.95;3.60;;;;;;;30.88;35.00;101535.84;4980480;28;20137;-80
2022/08/02 09:14:00;;;;;;;2.90;2.53;;;;;;;30.56;35.29;101537.13;4978526;28;20042;-80
2022/08/02 09:16:33;;;;;;;5.45;2.75;;;;;;;30.33;35.69;101537.28;4975308;28;20041;-81
2022/08/02 09:18:59;;;;;;;2.75;2.17;;;;;;;30.61;35.67;101530.03;4979965;28;20086;-80
2022/08/02 09:21:34;;;;;;;3.53;2.60;;;;;;;31.00;36.95;101532.38;4982778;28;20033;-80
2022/08/02 09:23:59;;;;;;;6.57;2.53;;;;;;;31.81;34.13;101537.53;4982040;28;21615;-80
2022/08/02 09:26:25;;;;;;;4.70;3.00;;;;;;;32.12;33.20;101528.88;4978960;28;20039;-80
2022/08/02 09:28:57;;;;;;;10.55;2.53;;;;;;;32.48;32.21;101523.16;4982337;28;20026;-80
2022/08/02 09:31:23;;;;;;;4.30;2.10;;;;;;;33.00;31.75;101530.97;4982833;28;20109;-80
2022/08/02 09:33:53;;;;;;;2.72;2.22;;;;;;;33.35;31.08;101528.84;4982575;28;20480;-81
2022/08/02 09:36:20;;;;;;;3.58;2.10;;;;;;;33.62;30.54;101535.25;4980839;28;20026;-80
2022/08/02 09:38:54;;;;;;;2.17;1.98;;;;;;;34.04;30.48;101525.66;4977509;28;20471;-81
2022/08/02 09:41:28;;;;;;;2.20;1.90;;;;;;;34.29;29.61;101525.78;4979420;28;20108;-80
2022/08/02 09:43:55;;;;;;;4.55;2.08;;;;;;;34.20;29.08;101533.47;4976194;28;20023;-80
2022/08/02 09:46:29;;;;;;;1.98;1.77;;;;;;;33.51;29.42;101524.84;4983019;28;20021;-80
2022/08/02 09:49:03;;;;;;;2.70;1.92;;;;;;;33.30;30.33;101526.75;4978758;28;20031;-81
2022/08/02 09:51:33;;;;;;;2.47;2.00;;;;;;;33.50;29.69;101532.28;4986717;28;20376;-80
2022/08/02 09:54:01;;;;;;;3.45;2.30;;;;;;;33.41;29.64;101523.34;4986915;28;20376;-80
2022/08/02 09:56:38;;;;;;;3.45;2.53;;;;;;;33.38;29.50;101522.94;4989640;28;20022;-80
2022/08/02 09:59:07;;;;;;;2.38;1.90;;;;;;;34.62;28.06;101527.59;4978208;28;20026;-81
2022/08/02 10:01:33;;;;;;;3.15;1.90;;;;;;;35.04;27.48;101534.38;4975745;28;20081;-81
2022/08/02 10:04:01;;;;;;;3.50;2.10;;;;;;;35.67;27.32;101536.22;4969298;28;20022;-80
2022/08/02 10:06:27;;;;;;;2.47;1.60;;;;;;;36.49;25.58;101542.38;4988349;28;20034;-80
2022/08/02 10:08:54;;;;;;;1.83;1.50;;;;;;;35.74;25.52;101522.31;4980172;28;20114;-81
2022/08/02 10:11:21;;;;;;;3.35;1.90;;;;;;;35.33;25.22;101532.03;4970042;28;20097;-79
2022/08/02 10:13:47;;;;;;;1.80;1.55;;;;;;;35.40;24.70;101527.28;4970768;28;20041;-80
2022/08/02 10:16:15;;;;;;;4.68;1.85;;;;;;;35.55;25.62;101515.91;4972489;28;20065;-79
2022/08/02 10:18:40;;;;;;;3.25;1.52;;;;;;;36.37;24.28;101522.03;4979281;28;20113;-79
2022/08/02 10:21:11;;;;;;;5.88;1.60;;;;;;;36.94;23.52;101517.03;4976209;28;20051;-80
2022/08/02 10:23:39;;;;;;;2.83;1.60;;;;;;;37.62;22.79;101530.47;4983714;28;20030;-80
2022/08/02 10:26:06;;;;;;;2.97;1.90;;;;;;;37.87;22.87;101521.91;4986883;28;20026;-80
2022/08/02 10:28:32;;;;;;;2.67;1.52;;;;;;;38.20;22.51;101519.53;4986976;28;20061;-80
2022/08/02 10:31:01;;;;;;;3.20;2.35;;;;;;;37.92;22.16;101523.06;4979399;28;20033;-80
2022/08/02 10:33:28;;;;;;;2.40;1.88;;;;;;;38.39;21.83;101515.53;4981265;28;20030;-81
2022/08/02 10:35:58;;;;;;;3.17;1.55;;;;;;;38.79;20.83;101517.44;4980152;28;20031;-78
2022/08/02 10:38:24;;;;;;;2.78;2.03;;;;;;;37.87;20.82;101512.69;4974636;28;20038;-79
2022/08/02 10:40:54;;;;;;;3.00;1.50;;;;;;;37.56;21.49;101511.13;4979507;28;20086;-76
2022/08/02 10:43:35;;;;;;;2.80;1.60;;;;;;;37.75;22.43;101509.06;4978113;28;20030;-79
2022/08/02 10:46:18;;;;;;;3.38;1.60;;;;;;;37.35;22.61;101515.31;4983399;28;20034;-81
2022/08/02 10:49:09;;;;;;;2.50;1.70;;;;;;;35.81;24.45;101512.84;4978578;28;20483;-80
2022/08/02 10:51:55;;;;;;;3.17;1.63;;;;;;;34.92;25.12;101503.78;4973187;28;20082;-80
2022/08/02 10:54:24;;;;;;;2.63;1.60;;;;;;;33.96;26.08;101525.84;4982644;28;20472;-80
2022/08/02 10:56:52;;;;;;;1.52;1.42;;;;;;;33.15;27.32;101517.81;4984863;28;20054;-79
2022/08/02 10:59:24;;;;;;;2.92;1.95;;;;;;;32.96;27.18;101514.81;4979294;28;20042;-78
2022/08/02 11:01:49;;;;;;;3.13;1.65;;;;;;;33.10;26.50;101507.41;4974671;28;20246;-81
2022/08/02 11:04:15;;;;;;;2.40;1.60;;;;;;;33.67;25.58;101508.72;4976014;28;20483;-79
2022/08/02 11:07:06;;;;;;;2.45;1.40;;;;;;;34.12;25.66;101505.25;4975904;28;20061;-79
2022/08/02 11:09:32;;;;;;;1.80;1.45;;;;;;;35.00;25.24;101508.22;4979028;28;20035;-78
2022/08/02 11:12:05;;;;;;;1.40;1.30;;;;;;;35.85;23.59;101502.16;4969851;28;20101;-80
2022/08/02 11:14:34;;;;;;;2.72;1.67;;;;;;;36.84;23.17;101500.09;4970371;28;20189;-79
2022/08/02 11:17:01;;;;;;;3.30;1.60;;;;;;;38.07;21.64;101506.75;4976994;28;20088;-79
2022/08/02 11:19:27;;;;;;;1.58;1.35;;;;;;;39.17;19.58;101494.47;4986206;28;20117;-79
2022/08/02 11:22:06;;;;;;;3.67;1.73;;;;;;;39.20;20.10;101490.31;4973906;28;20437;-80
2022/08/02 11:24:33;;;;;;;2.25;1.40;;;;;;;38.42;19.93;101501.13;4980589;28;20125;-79
2022/08/02 11:27:03;;;;;;;3.40;1.30;;;;;;;38.94;20.46;101508.53;4983741;28;20383;-80